Time;durP1;ratioP1;P1;durP2;ratioP2;P2;SDS_P1;SDS_P2;PMS_P1;PMS_P2;Temp;Humidity;BMP_temperature;BMP_pressure;BME280_temperature;BME280_humidity;BME280_pressure;Samples;Min_cycle;Max_cycle;Signal;HPM_P1;HPM_P2
2023/12/14 00:02:12;;;;;;;12.50;11.23;;;5.30;99.90;;;;;;4979556;28;20140;-74
2023/12/14 00:04:38;;;;;;;13.00;11.70;;;5.30;99.90;;;;;;4976448;28;20125;-74
2023/12/14 00:07:04;;;;;;;12.80;11.60;;;5.30;99.90;;;;;;4961196;28;20054;-74
2023/12/14 00:09:29;;;;;;;14.23;12.70;;;5.30;99.90;;;;;;4964273;28;20054;-74
2023/12/14 00:11:55;;;;;;;13.60;12.20;;;5.20;99.90;;;;;;4980420;28;20058;-74
2023/12/14 00:14:21;;;;;;;14.07;12.68;;;5.20;99.90;;;;;;4978376;28;20459;-73
2023/12/14 00:16:47;;;;;;;13.15;11.90;;;5.20;99.90;;;;;;4979377;28;20045;-74
2023/12/14 00:19:13;;;;;;;14.32;12.82;;;5.20;99.90;;;;;;4981927;28;20060;-72
2023/12/14 00:21:38;;;;;;;14.15;12.68;;;5.20;99.90;;;;;;4964244;28;20050;-72
2023/12/14 00:24:04;;;;;;;14.70;13.20;;;5.20;99.90;;;;;;4979529;28;20057;-81
2023/12/14 00:26:30;;;;;;;15.68;12.80;;;5.20;99.90;;;;;;4982377;28;20046;-80
2023/12/14 00:28:56;;;;;;;15.30;13.07;;;5.20;99.90;;;;;;4965061;28;20073;-72
2023/12/14 00:31:22;;;;;;;14.63;13.07;;;5.20;99.90;;;;;;4961741;28;20096;-72
2023/12/14 00:33:48;;;;;;;14.75;13.27;;;5.20;99.90;;;;;;4977749;28;20046;-72
2023/12/14 00:36:19;;;;;;;14.55;12.85;;;5.20;99.90;;;;;;4979857;28;20046;-72
2023/12/14 00:38:46;;;;;;;16.48;12.40;;;5.10;99.90;;;;;;4980161;28;20038;-72
2023/12/14 00:41:12;;;;;;;17.27;13.73;;;5.10;99.90;;;;;;4979168;28;20050;-72
2023/12/14 00:43:38;;;;;;;15.07;12.77;;;5.10;99.90;;;;;;4978451;28;20499;-72
2023/12/14 00:46:04;;;;;;;13.95;12.38;;;5.10;99.90;;;;;;4963312;28;20050;-72
2023/12/14 00:48:30;;;;;;;14.70;12.73;;;5.10;99.90;;;;;;5082262;28;20565;-72
2023/12/14 00:50:56;;;;;;;13.68;12.15;;;5.10;99.90;;;;;;4977754;28;20668;-72
2023/12/14 00:53:22;;;;;;;15.30;12.23;;;5.00;99.90;;;;;;5013152;28;20049;-72
2023/12/14 00:55:48;;;;;;;13.18;11.88;;;5.00;99.90;;;;;;4979957;28;20111;-72
2023/12/14 00:58:14;;;;;;;14.18;12.68;;;5.00;99.90;;;;;;4963725;28;20038;-72
2023/12/14 01:00:41;;;;;;;14.82;12.07;;;5.00;99.90;;;;;;4978525;28;20134;-72
2023/12/14 01:03:06;;;;;;;13.35;11.60;;;5.00;99.90;;;;;;4979628;28;20043;-72
2023/12/14 01:05:32;;;;;;;13.07;11.70;;;5.00;99.90;;;;;;4980811;28;20053;-72
2023/12/14 01:07:58;;;;;;;13.95;12.40;;;5.10;99.90;;;;;;4978610;28;20042;-72
2023/12/14 01:10:24;;;;;;;13.35;11.93;;;4.90;99.90;;;;;;4980044;28;20118;-72
2023/12/14 01:12:50;;;;;;;12.52;11.23;;;5.00;99.90;;;;;;4978956;28;20680;-72
2023/12/14 01:15:18;;;;;;;13.13;11.82;;;5.00;99.90;;;;;;4981615;28;20107;-72
2023/12/14 01:17:44;;;;;;;13.73;11.43;;;5.00;99.90;;;;;;5010706;28;20130;-72
2023/12/14 01:20:11;;;;;;;14.13;11.85;;;5.00;99.90;;;;;;5013025;28;20118;-72
2023/12/14 01:22:37;;;;;;;12.60;11.35;;;4.90;99.90;;;;;;4962371;28;20516;-72
2023/12/14 01:25:03;;;;;;;13.50;11.18;;;5.00;99.90;;;;;;4977649;28;20038;-72
2023/12/14 01:27:28;;;;;;;15.32;12.10;;;5.00;99.90;;;;;;4980370;28;20070;-71
2023/12/14 01:29:54;;;;;;;12.95;11.65;;;4.90;99.90;;;;;;4962568;28;20078;-72
2023/12/14 01:32:20;;;;;;;13.27;11.48;;;4.90;99.90;;;;;;4963123;28;20525;-72
2023/12/14 01:34:46;;;;;;;13.30;11.70;;;4.90;99.90;;;;;;4952668;28;21226;-71
2023/12/14 01:37:11;;;;;;;12.82;11.52;;;4.90;99.90;;;;;;5003468;28;20120;-71
2023/12/14 01:39:37;;;;;;;13.70;11.13;;;4.90;99.90;;;;;;4976149;28;20391;-72
2023/12/14 01:42:03;;;;;;;13.10;11.65;;;4.90;99.90;;;;;;4970744;28;20474;-72
2023/12/14 01:44:29;;;;;;;12.90;11.00;;;4.90;99.90;;;;;;4974861;28;20049;-72
2023/12/14 01:46:55;;;;;;;12.25;10.95;;;4.80;99.90;;;;;;4964583;28;20089;-72
2023/12/14 01:49:20;;;;;;;11.75;10.55;;;4.80;99.90;;;;;;4975338;28;20046;-72
2023/12/14 01:51:47;;;;;;;12.07;10.77;;;4.80;99.90;;;;;;4975150;28;20050;-72
2023/12/14 01:54:13;;;;;;;12.13;10.80;;;4.80;99.90;;;;;;5012050;28;20046;-72
2023/12/14 01:56:39;;;;;;;11.65;10.43;;;4.80;99.90;;;;;;4991479;28;20406;-72
2023/12/14 01:59:05;;;;;;;13.10;11.38;;;4.80;99.90;;;;;;4977996;28;20186;-72
2023/12/14 02:01:34;;;;;;;12.07;10.77;;;4.80;99.90;;;;;;4976648;28;20612;-72
2023/12/14 02:04:01;;;;;;;12.13;10.63;;;4.80;99.90;;;;;;4969747;28;20051;-72
2023/12/14 02:06:27;;;;;;;12.90;10.07;;;4.80;99.90;;;;;;4990914;28;20089;-72
2023/12/14 02:08:53;;;;;;;11.70;10.25;;;4.80;99.90;;;;;;4979056;28;20066;-72
2023/12/14 02:11:18;;;;;;;11.88;10.23;;;4.70;99.90;;;;;;4979002;28;20561;-72
2023/12/14 02:13:44;;;;;;;11.77;10.23;;;4.70;99.90;;;;;;4981162;28;20050;-71
2023/12/14 02:16:10;;;;;;;10.90;9.68;;;4.70;99.90;;;;;;4979787;28;20039;-72
2023/12/14 02:18:36;;;;;;;12.98;10.48;;;4.70;99.90;;;;;;4966050;28;20047;-72
2023/12/14 02:21:02;;;;;;;11.63;10.00;;;4.70;99.90;;;;;;4981051;28;20053;-72
2023/12/14 02:23:28;;;;;;;11.18;9.80;;;4.70;99.90;;;;;;4965399;28;20046;-72
2023/12/14 02:25:54;;;;;;;12.10;9.90;;;4.70;99.90;;;;;;4981192;28;20046;-72
2023/12/14 02:28:19;;;;;;;10.48;9.38;;;4.70;99.90;;;;;;4979014;28;20039;-72
2023/12/14 02:30:46;;;;;;;11.45;9.70;;;4.70;99.90;;;;;;4958488;28;20062;-72
2023/12/14 02:33:12;;;;;;;12.05;9.50;;;4.70;99.90;;;;;;4980290;28;20034;-72
2023/12/14 02:35:37;;;;;;;12.65;9.77;;;4.70;99.90;;;;;;4981642;28;20070;-72
2023/12/14 02:38:03;;;;;;;12.52;9.65;;;4.70;99.90;;;;;;4965231;28;20058;-72
2023/12/14 02:40:29;;;;;;;10.85;8.95;;;4.70;99.90;;;;;;4978303;28;20046;-72
2023/12/14 02:42:55;;;;;;;10.20;9.10;;;4.70;99.90;;;;;;4965711;28;20538;-72
2023/12/14 02:45:21;;;;;;;13.65;10.25;;;4.70;99.90;;;;;;4982064;28;20038;-72
2023/12/14 02:47:48;;;;;;;10.77;9.38;;;4.70;99.90;;;;;;4977778;28;20046;-72
2023/12/14 02:50:14;;;;;;;11.23;8.80;;;4.70;99.90;;;;;;4979411;28;20046;-72
2023/12/14 02:52:39;;;;;;;11.38;9.63;;;4.70;99.90;;;;;;4964227;28;20509;-80
2023/12/14 02:55:05;;;;;;;11.88;9.68;;;4.80;99.90;;;;;;4999947;28;20042;-71
2023/12/14 02:57:31;;;;;;;11.35;9.43;;;4.70;99.90;;;;;;4965925;28;20383;-72
2023/12/14 02:59:57;;;;;;;12.77;9.50;;;4.70;99.90;;;;;;4980042;28;20104;-72
2023/12/14 03:02:22;;;;;;;12.65;9.50;;;4.80;99.90;;;;;;4972578;28;20103;-72
2023/12/14 03:04:48;;;;;;;12.48;9.45;;;4.70;99.90;;;;;;4968792;28;20046;-72
2023/12/14 03:07:14;;;;;;;10.45;9.35;;;4.70;99.90;;;;;;4990707;28;20455;-72
2023/12/14 03:09:44;;;;;;;11.63;9.70;;;4.70;99.90;;;;;;4983695;28;20544;-72
2023/12/14 03:12:10;;;;;;;11.45;9.68;;;4.70;99.90;;;;;;4960097;28;20038;-72
2023/12/14 03:14:36;;;;;;;12.38;9.90;;;4.70;99.90;;;;;;5015905;28;20145;-72
2023/12/14 03:17:02;;;;;;;13.40;10.70;;;4.70;99.90;;;;;;4977834;28;20541;-72
2023/12/14 03:19:28;;;;;;;14.18;10.68;;;4.70;99.90;;;;;;4963097;28;20056;-72
2023/12/14 03:21:54;;;;;;;12.75;11.00;;;4.70;99.90;;;;;;4955697;28;20058;-72
2023/12/14 03:24:23;;;;;;;16.67;12.48;;;4.70;99.90;;;;;;4999365;28;21180;-72
2023/12/14 03:26:49;;;;;;;14.57;11.60;;;4.70;99.90;;;;;;5015221;28;20771;-72
2023/12/14 03:29:14;;;;;;;15.00;12.18;;;4.70;99.90;;;;;;4979989;28;20394;-72
2023/12/14 03:31:40;;;;;;;16.85;12.48;;;4.80;99.90;;;;;;4981398;28;20042;-72
2023/12/14 03:34:06;;;;;;;14.40;12.32;;;4.70;99.90;;;;;;4983993;28;20046;-72
2023/12/14 03:36:31;;;;;;;13.80;12.07;;;4.70;99.90;;;;;;4970194;28;20042;-72
2023/12/14 03:38:57;;;;;;;17.83;12.98;;;4.70;99.90;;;;;;5001418;28;20055;-72
2023/12/14 03:41:23;;;;;;;15.52;12.25;;;4.70;99.90;;;;;;5000053;28;20039;-72
2023/12/14 03:43:49;;;;;;;15.93;12.73;;;4.70;99.90;;;;;;4997567;28;20709;-72
2023/12/14 03:46:15;;;;;;;16.90;13.38;;;4.80;99.90;;;;;;5008978;28;20038;-72
2023/12/14 03:48:40;;;;;;;18.23;13.50;;;4.70;99.90;;;;;;5005942;28;20045;-72
2023/12/14 03:51:06;;;;;;;21.05;15.05;;;4.80;99.90;;;;;;4980893;28;20117;-72
2023/12/14 03:53:32;;;;;;;20.38;13.05;;;4.80;99.90;;;;;;4981791;28;20884;-72
2023/12/14 03:55:58;;;;;;;17.80;13.50;;;4.70;99.90;;;;;;4958724;28;20473;-72
2023/12/14 03:58:24;;;;;;;17.55;13.73;;;4.70;99.90;;;;;;4967563;28;20133;-72
2023/12/14 04:00:50;;;;;;;16.83;14.20;;;4.80;99.90;;;;;;4982621;28;20469;-72
2023/12/14 04:03:15;;;;;;;18.90;14.10;;;4.70;99.90;;;;;;4972645;28;20530;-72
2023/12/14 04:05:41;;;;;;;19.45;13.80;;;4.70;99.90;;;;;;4966890;28;20487;-71
2023/12/14 04:08:07;;;;;;;19.17;14.30;;;4.70;99.90;;;;;;4983918;28;20057;-72
2023/12/14 04:10:33;;;;;;;17.73;13.73;;;4.70;99.90;;;;;;5004477;28;20050;-72
2023/12/14 04:12:58;;;;;;;17.48;14.18;;;4.70;99.90;;;;;;4964687;28;20047;-72
2023/12/14 04:15:24;;;;;;;19.98;13.30;;;4.70;99.90;;;;;;5013463;28;20086;-72
2023/12/14 04:17:50;;;;;;;17.27;13.55;;;4.70;99.90;;;;;;4972131;28;20046;-72
2023/12/14 04:20:16;;;;;;;17.15;13.23;;;4.70;99.90;;;;;;4973577;28;20050;-72
2023/12/14 04:22:45;;;;;;;19.30;13.88;;;4.70;99.90;;;;;;4967951;28;20042;-72
2023/12/14 04:25:11;;;;;;;17.35;13.82;;;4.70;99.90;;;;;;5010707;28;20289;-72
2023/12/14 04:27:36;;;;;;;18.80;13.45;;;4.70;99.90;;;;;;4991787;28;20125;-72
2023/12/14 04:30:04;;;;;;;15.70;12.27;;;4.70;99.90;;;;;;5010037;28;20510;-72
2023/12/14 04:32:30;;;;;;;19.17;13.50;;;4.70;99.90;;;;;;5007411;28;20055;-72
2023/12/14 04:34:56;;;;;;;18.67;13.13;;;4.70;99.90;;;;;;4964973;28;20051;-72
2023/12/14 04:37:22;;;;;;;18.90;14.35;;;4.80;99.90;;;;;;4990770;28;20050;-72
2023/12/14 04:39:47;;;;;;;17.38;14.10;;;4.60;99.90;;;;;;4959719;28;20119;-72
2023/12/14 04:42:13;;;;;;;26.50;14.68;;;4.70;99.90;;;;;;5006677;28;20054;-72
2023/12/14 04:44:39;;;;;;;18.00;13.48;;;4.70;99.90;;;;;;5004618;28;20050;-72
2023/12/14 04:47:05;;;;;;;18.30;13.70;;;4.70;99.90;;;;;;4964575;28;20443;-71
2023/12/14 04:49:30;;;;;;;18.40;13.52;;;4.70;99.90;;;;;;4977152;28;20056;-72
2023/12/14 04:51:56;;;;;;;19.30;13.43;;;4.70;99.90;;;;;;4999106;28;20066;-71
2023/12/14 04:54:22;;;;;;;17.25;12.27;;;4.70;99.90;;;;;;4978464;28;20379;-72
2023/12/14 04:56:48;;;;;;;19.13;12.75;;;4.70;99.90;;;;;;5009778;28;20061;-71
2023/12/14 04:59:13;;;;;;;17.63;13.35;;;4.70;99.90;;;;;;5004318;28;20050;-71
2023/12/14 05:01:39;;;;;;;17.15;12.43;;;4.70;99.90;;;;;;4974703;28;20078;-72
2023/12/14 05:04:05;;;;;;;17.50;12.57;;;4.70;99.90;;;;;;4957434;28;20034;-71
2023/12/14 05:06:33;;;;;;;16.08;12.15;;;4.60;99.90;;;;;;5001537;28;20149;-72
2023/12/14 05:08:58;;;;;;;18.15;11.90;;;4.70;99.90;;;;;;4977042;28;20043;-72
2023/12/14 05:11:24;;;;;;;19.15;13.48;;;4.70;99.90;;;;;;4962248;28;20094;-72
2023/12/14 05:13:50;;;;;;;17.45;12.85;;;4.70;99.90;;;;;;4979664;28;20571;-71
2023/12/14 05:16:16;;;;;;;18.40;12.60;;;4.70;99.90;;;;;;4964285;28;20054;-71
2023/12/14 05:18:42;;;;;;;18.60;12.73;;;4.60;99.90;;;;;;4982826;28;20498;-71
2023/12/14 05:21:08;;;;;;;17.40;12.10;;;4.70;99.90;;;;;;4978605;28;20046;-72
2023/12/14 05:23:34;;;;;;;15.77;11.60;;;4.70;99.90;;;;;;4981244;28;20048;-72
2023/12/14 05:25:59;;;;;;;18.65;12.13;;;4.70;99.90;;;;;;4977444;28;20054;-71
2023/12/14 05:28:26;;;;;;;15.02;11.88;;;4.70;99.90;;;;;;5012539;28;20825;-72
2023/12/14 05:30:51;;;;;;;15.70;13.02;;;4.60;99.90;;;;;;4963880;28;20050;-79
2023/12/14 05:33:17;;;;;;;14.45;11.65;;;4.70;99.90;;;;;;4979935;28;20027;-79
2023/12/14 05:35:43;;;;;;;17.40;12.73;;;4.70;99.90;;;;;;4995192;28;20133;-79
2023/12/14 05:38:08;;;;;;;13.32;10.88;;;4.70;99.90;;;;;;4977673;28;20046;-79
2023/12/14 05:40:34;;;;;;;16.75;12.27;;;4.60;99.90;;;;;;4977491;28;20046;-79
2023/12/14 05:43:00;;;;;;;13.95;11.00;;;4.70;99.90;;;;;;4965647;28;20069;-78
2023/12/14 05:45:26;;;;;;;14.50;11.68;;;4.70;99.90;;;;;;4981786;28;20043;-79
2023/12/14 05:47:52;;;;;;;18.60;11.63;;;4.70;99.90;;;;;;4981799;28;20070;-79
2023/12/14 05:50:18;;;;;;;13.48;11.68;;;4.60;99.90;;;;;;4979922;28;20043;-79
2023/12/14 05:52:45;;;;;;;15.70;11.82;;;4.70;99.90;;;;;;4968311;28;20046;-79
2023/12/14 05:55:11;;;;;;;15.35;12.15;;;4.60;99.90;;;;;;4981308;28;20111;-78
2023/12/14 05:57:37;;;;;;;15.35;12.38;;;4.70;99.90;;;;;;4983506;28;20866;-79
2023/12/14 06:00:05;;;;;;;15.15;11.77;;;4.70;99.90;;;;;;4984323;28;20046;-79
2023/12/14 06:02:32;;;;;;;14.02;11.40;;;4.70;99.90;;;;;;4982903;28;20086;-78
2023/12/14 06:04:58;;;;;;;15.07;11.63;;;4.70;99.90;;;;;;4963513;28;20737;-78
2023/12/14 06:07:24;;;;;;;16.23;11.48;;;4.70;99.90;;;;;;4966448;28;20042;-78
2023/12/14 06:09:50;;;;;;;14.25;11.43;;;4.70;99.90;;;;;;4985895;28;20039;-71
2023/12/14 06:12:16;;;;;;;16.52;11.65;;;4.70;99.90;;;;;;4980107;28;20137;-71
2023/12/14 06:14:42;;;;;;;14.18;11.43;;;4.60;99.90;;;;;;4980654;28;20072;-71
2023/12/14 06:17:07;;;;;;;14.73;11.88;;;4.60;99.90;;;;;;4956308;28;20043;-74
2023/12/14 06:19:33;;;;;;;12.73;11.27;;;4.60;99.90;;;;;;4976583;28;20050;-78
2023/12/14 06:21:59;;;;;;;13.38;11.50;;;4.70;99.90;;;;;;4981064;28;20054;-78
2023/12/14 06:24:25;;;;;;;13.88;11.10;;;4.70;99.90;;;;;;4978165;28;20122;-71
2023/12/14 06:26:51;;;;;;;12.63;9.85;;;4.60;99.90;;;;;;5000841;28;20082;-71
2023/12/14 06:29:17;;;;;;;13.68;10.70;;;4.60;99.90;;;;;;4963550;28;20422;-71
2023/12/14 06:31:44;;;;;;;13.90;10.50;;;4.60;99.90;;;;;;4965150;28;20482;-71
2023/12/14 06:34:10;;;;;;;14.38;10.60;;;4.70;99.90;;;;;;4964154;28;20447;-72
2023/12/14 06:36:41;;;;;;;13.85;10.65;;;4.60;99.90;;;;;;4978285;28;20074;-72
2023/12/14 06:39:07;;;;;;;12.70;11.13;;;4.60;99.90;;;;;;4985283;28;20129;-71
2023/12/14 06:41:33;;;;;;;13.43;11.57;;;4.60;99.90;;;;;;4981510;28;20077;-72
2023/12/14 06:43:58;;;;;;;12.95;10.32;;;4.60;99.90;;;;;;4993851;28;20108;-71
2023/12/14 06:46:24;;;;;;;11.88;10.52;;;4.60;99.90;;;;;;4982361;28;20415;-71
2023/12/14 06:48:50;;;;;;;12.73;11.25;;;4.60;99.90;;;;;;4962850;28;20387;-78
2023/12/14 06:51:16;;;;;;;13.50;11.55;;;4.60;99.90;;;;;;4978215;28;20117;-79
2023/12/14 06:53:43;;;;;;;12.77;11.38;;;4.60;99.90;;;;;;5013695;28;20057;-79
2023/12/14 06:56:10;;;;;;;16.38;11.65;;;4.60;99.90;;;;;;4962763;28;20134;-79
2023/12/14 06:58:44;;;;;;;14.13;11.88;;;4.60;99.90;;;;;;4982412;28;20077;-79
2023/12/14 07:01:20;;;;;;;14.63;12.80;;;4.70;99.90;;;;;;4963047;28;20086;-79
2023/12/14 07:03:45;;;;;;;15.15;13.10;;;4.60;99.90;;;;;;5012560;28;20220;-79
2023/12/14 07:06:16;;;;;;;15.10;12.52;;;4.60;99.90;;;;;;4960914;28;21646;-79
2023/12/14 07:08:42;;;;;;;16.08;13.32;;;4.60;99.90;;;;;;4963103;28;20030;-79
2023/12/14 07:11:08;;;;;;;15.63;13.27;;;4.60;99.90;;;;;;4979345;28;20571;-79
2023/12/14 07:13:36;;;;;;;14.60;13.05;;;4.60;99.90;;;;;;4969032;28;20065;-80
2023/12/14 07:16:10;;;;;;;14.98;13.20;;;4.60;99.90;;;;;;4979829;28;20076;-79
2023/12/14 07:18:36;;;;;;;16.98;13.30;;;4.60;99.90;;;;;;4979186;28;20410;-72
2023/12/14 07:21:03;;;;;;;13.95;12.40;;;4.60;99.90;;;;;;5012946;28;20090;-73
2023/12/14 07:23:29;;;;;;;15.80;12.60;;;4.60;99.90;;;;;;4982770;28;20042;-72
2023/12/14 07:25:55;;;;;;;15.65;13.10;;;4.60;99.90;;;;;;4980314;28;20133;-72
2023/12/14 07:28:22;;;;;;;14.90;13.30;;;4.60;99.90;;;;;;4962231;28;20066;-73
2023/12/14 07:30:47;;;;;;;16.55;13.88;;;4.60;99.90;;;;;;4978639;28;20039;-73
2023/12/14 07:33:14;;;;;;;16.23;13.10;;;4.60;99.90;;;;;;4962001;28;20046;-73
2023/12/14 07:35:40;;;;;;;14.45;12.90;;;4.60;99.90;;;;;;4982104;28;20043;-73
2023/12/14 07:38:06;;;;;;;18.17;14.65;;;4.60;99.90;;;;;;4978513;28;20050;-73
2023/12/14 07:40:32;;;;;;;15.10;13.00;;;4.70;99.90;;;;;;4980484;28;20487;-73
2023/12/14 07:42:58;;;;;;;16.60;14.50;;;4.70;99.90;;;;;;4977447;28;20050;-72
2023/12/14 07:45:23;;;;;;;17.00;14.00;;;4.70;99.90;;;;;;4981088;28;20038;-73
2023/12/14 07:47:49;;;;;;;16.38;13.38;;;4.70;99.90;;;;;;4963722;28;20113;-72
2023/12/14 07:50:15;;;;;;;17.23;14.32;;;4.70;99.90;;;;;;4965041;28;20038;-72
2023/12/14 07:52:41;;;;;;;16.00;14.30;;;4.70;99.90;;;;;;4962209;28;20045;-73
2023/12/14 07:55:07;;;;;;;18.70;14.35;;;4.70;99.90;;;;;;4964928;28;20048;-73
2023/12/14 07:57:33;;;;;;;19.08;14.98;;;4.70;99.90;;;;;;4980230;28;20556;-73
2023/12/14 07:59:59;;;;;;;18.40;14.77;;;4.70;99.90;;;;;;4965011;28;20471;-73
2023/12/14 08:02:25;;;;;;;18.95;15.80;;;4.70;99.90;;;;;;4963405;28;20046;-73
2023/12/14 08:04:52;;;;;;;17.05;15.27;;;4.70;99.90;;;;;;4979290;28;20050;-72
2023/12/14 08:07:18;;;;;;;18.73;15.18;;;4.70;99.90;;;;;;4995308;28;20049;-71
2023/12/14 08:09:44;;;;;;;16.27;14.57;;;4.70;99.90;;;;;;4966847;28;20077;-71
2023/12/14 08:12:09;;;;;;;15.73;13.93;;;4.70;99.90;;;;;;4973260;28;20050;-71
2023/12/14 08:14:38;;;;;;;17.67;15.85;;;4.70;99.90;;;;;;4979462;28;20050;-71
2023/12/14 08:17:04;;;;;;;19.58;17.42;;;4.70;99.90;;;;;;4961728;28;20067;-71
2023/12/14 08:19:30;;;;;;;19.55;17.02;;;4.80;99.90;;;;;;4977469;28;20398;-71
2023/12/14 08:21:56;;;;;;;21.08;16.25;;;4.80;99.90;;;;;;4980307;28;20046;-72
2023/12/14 08:24:22;;;;;;;19.63;16.27;;;4.80;99.90;;;;;;4980516;28;20042;-72
2023/12/14 08:26:47;;;;;;;19.50;16.50;;;4.80;99.90;;;;;;4960942;28;20380;-72
2023/12/14 08:29:13;;;;;;;22.23;17.02;;;4.80;99.90;;;;;;4984973;28;20494;-72
2023/12/14 08:31:39;;;;;;;21.13;17.27;;;4.80;99.90;;;;;;4978370;28;20047;-74
2023/12/14 08:34:05;;;;;;;20.15;16.33;;;4.80;99.90;;;;;;5014737;28;20046;-72
2023/12/14 08:36:31;;;;;;;21.63;15.75;;;4.80;99.90;;;;;;4977323;28;20053;-72
2023/12/14 08:38:58;;;;;;;24.80;16.92;;;4.90;99.90;;;;;;4978891;28;20050;-72
2023/12/14 08:41:24;;;;;;;25.38;17.15;;;4.90;99.90;;;;;;4963761;28;20051;-71
2023/12/14 08:43:49;;;;;;;24.38;16.50;;;4.80;99.90;;;;;;4962235;28;20099;-71
2023/12/14 08:46:15;;;;;;;23.08;17.33;;;4.80;99.90;;;;;;4979029;28;20070;-72
2023/12/14 08:48:41;;;;;;;23.05;17.25;;;4.90;99.90;;;;;;4977542;28;20074;-72
2023/12/14 08:51:07;;;;;;;22.55;17.13;;;4.90;99.90;;;;;;4979033;28;20223;-72
2023/12/14 08:53:33;;;;;;;28.15;16.13;;;4.90;99.90;;;;;;4993719;28;20490;-72
2023/12/14 08:55:59;;;;;;;24.38;16.88;;;4.90;99.90;;;;;;4965165;28;20054;-72
2023/12/14 08:58:24;;;;;;;24.77;16.85;;;4.80;99.90;;;;;;4977493;28;20052;-73
2023/12/14 09:00:52;;;;;;;26.58;17.60;;;4.90;99.90;;;;;;4981193;28;20125;-73
2023/12/14 09:03:21;;;;;;;19.40;15.98;;;4.90;99.90;;;;;;4964952;28;20125;-72
2023/12/14 09:05:47;;;;;;;20.40;16.10;;;4.80;99.90;;;;;;4964367;28;20042;-72
2023/12/14 09:08:13;;;;;;;26.38;16.85;;;4.90;99.90;;;;;;4958426;28;20070;-73
2023/12/14 09:10:39;;;;;;;23.50;16.75;;;4.90;99.90;;;;;;4963492;28;20060;-73
2023/12/14 09:13:05;;;;;;;22.63;16.75;;;4.90;99.90;;;;;;4978555;28;20134;-72
2023/12/14 09:15:32;;;;;;;21.58;16.60;;;4.90;99.90;;;;;;4978965;28;20092;-72
2023/12/14 09:17:58;;;;;;;23.83;16.77;;;5.00;99.90;;;;;;4978446;28;20645;-73
2023/12/14 09:20:23;;;;;;;23.55;16.60;;;5.00;99.90;;;;;;4980372;28;20495;-73
2023/12/14 09:22:49;;;;;;;28.20;17.17;;;5.00;99.90;;;;;;4979414;28;20397;-73
2023/12/14 09:25:15;;;;;;;22.92;16.88;;;5.00;99.90;;;;;;4977576;28;20337;-73
2023/12/14 09:27:41;;;;;;;24.48;16.95;;;5.00;99.90;;;;;;4979675;28;20119;-73
2023/12/14 09:30:08;;;;;;;21.73;15.77;;;5.00;99.90;;;;;;4975110;28;20101;-72
2023/12/14 09:32:34;;;;;;;26.77;19.85;;;5.10;99.90;;;;;;4981274;28;20050;-73
2023/12/14 09:35:00;;;;;;;28.35;18.15;;;5.10;99.90;;;;;;4960891;28;20050;-72
2023/12/14 09:37:26;;;;;;;23.17;17.77;;;5.10;99.90;;;;;;4977987;28;20049;-71
2023/12/14 09:39:51;;;;;;;26.52;19.13;;;5.10;99.90;;;;;;4976386;28;20058;-72
2023/12/14 09:42:20;;;;;;;26.63;17.08;;;5.30;99.90;;;;;;4963018;28;20039;-72
2023/12/14 09:44:48;;;;;;;24.85;17.60;;;5.20;99.90;;;;;;4975882;28;20671;-78
2023/12/14 09:47:14;;;;;;;25.33;18.10;;;5.20;99.90;;;;;;4965905;28;20045;-78
2023/12/14 09:49:45;;;;;;;22.35;16.60;;;5.20;99.90;;;;;;4974590;28;20046;-78
2023/12/14 09:52:11;;;;;;;24.38;16.95;;;5.20;99.90;;;;;;4981743;28;20465;-78
2023/12/14 09:54:36;;;;;;;27.27;18.08;;;5.30;99.90;;;;;;4977617;28;20058;-78
2023/12/14 09:57:02;;;;;;;23.63;17.00;;;5.20;99.90;;;;;;4995671;28;20145;-78
2023/12/14 09:59:28;;;;;;;25.27;17.33;;;5.20;99.90;;;;;;4963669;28;20049;-78
2023/12/14 10:02:09;;;;;;;25.10;17.48;;;5.20;99.90;;;;;;4978082;28;20050;-79
2023/12/14 10:04:36;;;;;;;24.70;17.73;;;5.20;99.90;;;;;;4962021;28;20100;-78
2023/12/14 10:07:06;;;;;;;23.52;16.38;;;5.20;99.90;;;;;;4980332;28;20509;-78
2023/12/14 10:09:33;;;;;;;23.38;16.08;;;5.20;99.90;;;;;;4959884;28;20609;-78
2023/12/14 10:12:07;;;;;;;23.50;16.63;;;5.20;99.90;;;;;;4977207;28;20058;-78
2023/12/14 10:14:33;;;;;;;23.77;16.27;;;5.20;99.90;;;;;;4977963;28;20038;-72
2023/12/14 10:17:16;;;;;;;24.80;17.85;;;5.20;99.90;;;;;;4978458;28;20050;-72
2023/12/14 10:19:46;;;;;;;25.08;17.45;;;5.30;99.90;;;;;;4979149;28;20034;-72
2023/12/14 10:22:15;;;;;;;24.17;17.00;;;5.30;99.90;;;;;;5010915;28;20100;-72
2023/12/14 10:24:44;;;;;;;20.90;16.67;;;5.30;99.90;;;;;;4977084;28;20461;-72
2023/12/14 10:27:11;;;;;;;24.98;17.08;;;5.40;99.90;;;;;;4964639;28;20039;-79
2023/12/14 10:29:40;;;;;;;22.52;15.60;;;5.40;99.90;;;;;;4981415;28;20082;-78
2023/12/14 10:32:08;;;;;;;27.25;17.65;;;5.40;99.90;;;;;;4979168;28;20054;-79
2023/12/14 10:34:39;;;;;;;25.08;17.42;;;5.40;99.90;;;;;;4982780;28;20047;-78
2023/12/14 10:37:05;;;;;;;;;;;5.40;99.90;;;;;;4964952;28;20114;-79
2023/12/14 10:39:33;;;;;;;23.88;16.30;;;5.40;99.90;;;;;;4966732;28;20373;-78
2023/12/14 10:42:05;;;;;;;25.95;18.25;;;5.50;99.90;;;;;;4964291;28;20056;-78
2023/12/14 10:44:36;;;;;;;24.23;18.35;;;5.50;99.90;;;;;;4977923;28;20107;-78
2023/12/14 10:47:06;;;;;;;25.60;16.95;;;5.60;99.90;;;;;;4997231;28;20141;-79
2023/12/14 10:49:34;;;;;;;21.50;17.30;;;5.50;99.90;;;;;;4999977;28;20103;-80
2023/12/14 10:52:02;;;;;;;22.90;16.90;;;5.60;99.90;;;;;;4967887;28;20687;-80
2023/12/14 10:54:35;;;;;;;25.83;17.52;;;5.60;99.90;;;;;;4983736;28;20627;-79
2023/12/14 10:57:01;;;;;;;23.98;17.08;;;5.60;99.90;;;;;;4982855;28;20050;-79
2023/12/14 10:59:26;;;;;;;22.50;17.20;;;5.70;99.90;;;;;;4982164;28;20049;-79
2023/12/14 11:01:53;;;;;;;23.25;17.65;;;5.70;99.90;;;;;;4999806;28;20058;-79
2023/12/14 11:04:21;;;;;;;21.40;16.23;;;5.70;99.90;;;;;;4967405;28;20038;-80
2023/12/14 11:06:48;;;;;;;22.73;16.60;;;5.80;99.90;;;;;;4966413;28;20494;-79
2023/12/14 11:09:18;;;;;;;21.13;16.55;;;5.80;99.90;;;;;;4964592;28;20057;-79
2023/12/14 11:11:58;;;;;;;21.73;15.25;;;5.80;99.90;;;;;;4980893;28;20050;-79
2023/12/14 11:14:28;;;;;;;27.48;16.52;;;5.80;99.90;;;;;;4975250;28;20046;-79
2023/12/14 11:16:56;;;;;;;26.75;17.15;;;5.90;99.90;;;;;;4983521;28;20478;-79
2023/12/14 11:19:21;;;;;;;17.45;14.95;;;5.90;99.90;;;;;;4980370;28;20061;-79
2023/12/14 11:21:55;;;;;;;22.73;15.55;;;5.90;99.90;;;;;;4981961;28;20046;-79
2023/12/14 11:24:22;;;;;;;23.88;15.40;;;5.90;99.90;;;;;;5009546;28;20084;-73
2023/12/14 11:26:51;;;;;;;19.75;14.68;;;5.90;99.90;;;;;;4982009;28;20046;-73
2023/12/14 11:29:19;;;;;;;22.10;16.25;;;5.90;99.90;;;;;;4979696;28;20481;-72
2023/12/14 11:31:45;;;;;;;21.90;14.20;;;5.90;99.90;;;;;;4965516;28;20038;-72
2023/12/14 11:34:12;;;;;;;23.25;16.92;;;5.90;99.90;;;;;;4963752;28;20053;-73
2023/12/14 11:36:41;;;;;;;20.63;15.60;;;6.00;99.90;;;;;;4980589;28;20119;-72
2023/12/14 11:39:09;;;;;;;20.07;15.03;;;6.00;99.90;;;;;;5014298;28;20522;-73
2023/12/14 11:41:36;;;;;;;20.40;16.35;;;6.00;99.90;;;;;;4965574;28;20657;-72
2023/12/14 11:44:02;;;;;;;21.92;16.38;;;6.00;99.90;;;;;;4983781;28;20054;-72
2023/12/14 11:46:30;;;;;;;20.40;16.10;;;6.00;99.90;;;;;;4980544;28;20058;-72
2023/12/14 11:48:57;;;;;;;19.48;15.93;;;6.10;99.90;;;;;;4962997;28;20050;-72
2023/12/14 11:51:23;;;;;;;20.25;15.82;;;6.10;99.90;;;;;;4981120;28;20050;-72
2023/12/14 11:53:50;;;;;;;21.65;15.25;;;6.10;99.90;;;;;;5000054;28;20057;-72
2023/12/14 11:56:19;;;;;;;17.90;14.93;;;6.10;99.90;;;;;;4974284;28;20518;-73
2023/12/14 11:58:47;;;;;;;19.58;15.10;;;6.20;99.90;;;;;;4981667;28;20563;-72
2023/12/14 12:01:18;;;;;;;18.90;15.25;;;6.10;99.90;;;;;;4979936;28;20046;-72
2023/12/14 12:03:48;;;;;;;18.17;15.10;;;6.20;99.90;;;;;;4963573;28;20042;-72
2023/12/14 12:06:22;;;;;;;21.42;16.65;;;6.10;99.90;;;;;;4962595;28;20712;-72
2023/12/14 12:08:48;;;;;;;19.00;14.48;;;6.20;99.90;;;;;;4964690;28;20039;-73
2023/12/14 12:11:22;;;;;;;21.65;15.35;;;6.20;99.90;;;;;;4979701;28;20493;-73
2023/12/14 12:14:05;;;;;;;21.63;15.50;;;6.20;99.90;;;;;;4964636;28;20085;-73
2023/12/14 12:16:31;;;;;;;19.20;15.18;;;6.10;99.90;;;;;;5010257;28;20035;-73
2023/12/14 12:18:57;;;;;;;18.58;14.35;;;6.10;99.90;;;;;;4998550;28;20133;-73
2023/12/14 12:21:23;;;;;;;17.60;14.57;;;6.10;99.90;;;;;;4980308;28;20034;-79
2023/12/14 12:23:49;;;;;;;18.63;14.90;;;6.20;99.90;;;;;;4996676;28;20046;-73
2023/12/14 12:26:15;;;;;;;18.08;14.73;;;6.20;99.90;;;;;;4977774;28;20494;-73
2023/12/14 12:28:40;;;;;;;17.65;13.18;;;6.20;99.90;;;;;;4981506;28;20042;-73
2023/12/14 12:31:06;;;;;;;17.77;14.25;;;6.20;99.90;;;;;;4964721;28;20053;-73
2023/12/14 12:33:37;;;;;;;18.75;13.98;;;6.20;99.90;;;;;;4964932;28;20054;-73
2023/12/14 12:36:03;;;;;;;17.08;13.40;;;6.20;99.90;;;;;;4981323;28;20054;-73